sensor_id;sensor_type;location;lat;lon;timestamp;P1;durP1;ratioP1;P2;durP2;ratioP2
12271;SDS011;6198;51.446;6.698;2022-08-06T00:01:00;4.93;;;1.70;;
12271;SDS011;6198;51.446;6.698;2022-08-06T00:03:26;4.50;;;1.70;;
12271;SDS011;6198;51.446;6.698;2022-08-06T00:05:52;4.70;;;2.10;;
12271;SDS011;6198;51.446;6.698;2022-08-06T00:08:18;3.40;;;2.00;;
12271;SDS011;6198;51.446;6.698;2022-08-06T00:10:44;1.93;;;1.77;;
12271;SDS011;6198;51.446;6.698;2022-08-06T00:13:10;3.60;;;2.37;;
12271;SDS011;6198;51.446;6.698;2022-08-06T00:15:36;5.20;;;2.17;;
12271;SDS011;6198;51.446;6.698;2022-08-06T00:20:28;3.17;;;2.20;;
12271;SDS011;6198;51.446;6.698;2022-08-06T00:22:54;4.13;;;2.33;;
12271;SDS011;6198;51.446;6.698;2022-08-06T00:25:20;3.37;;;2.13;;
12271;SDS011;6198;51.446;6.698;2022-08-06T00:27:46;2.90;;;2.40;;
12271;SDS011;6198;51.446;6.698;2022-08-06T00:30:12;3.23;;;2.10;;
12271;SDS011;6198;51.446;6.698;2022-08-06T00:32:38;1.87;;;1.70;;
12271;SDS011;6198;51.446;6.698;2022-08-06T00:35:04;6.43;;;2.30;;
12271;SDS011;6198;51.446;6.698;2022-08-06T00:37:31;3.13;;;2.40;;
12271;SDS011;6198;51.446;6.698;2022-08-06T00:40:00;7.70;;;2.80;;
12271;SDS011;6198;51.446;6.698;2022-08-06T00:42:26;4.10;;;2.63;;
12271;SDS011;6198;51.446;6.698;2022-08-06T00:44:52;6.43;;;2.50;;
12271;SDS011;6198;51.446;6.698;2022-08-06T00:47:19;6.63;;;2.50;;
12271;SDS011;6198;51.446;6.698;2022-08-06T00:49:45;6.23;;;2.60;;
12271;SDS011;6198;51.446;6.698;2022-08-06T00:52:11;3.60;;;2.10;;
12271;SDS011;6198;51.446;6.698;2022-08-06T00:54:37;5.73;;;2.23;;
12271;SDS011;6198;51.446;6.698;2022-08-06T00:57:03;4.87;;;2.10;;
12271;SDS011;6198;51.446;6.698;2022-08-06T00:59:29;5.13;;;2.20;;
12271;SDS011;6198;51.446;6.698;2022-08-06T01:01:55;4.57;;;2.40;;
12271;SDS011;6198;51.446;6.698;2022-08-06T01:04:21;5.00;;;2.37;;
12271;SDS011;6198;51.446;6.698;2022-08-06T01:06:47;6.33;;;2.40;;
12271;SDS011;6198;51.446;6.698;2022-08-06T01:09:13;6.63;;;2.10;;
12271;SDS011;6198;51.446;6.698;2022-08-06T01:11:39;6.50;;;2.40;;
12271;SDS011;6198;51.446;6.698;2022-08-06T01:14:06;5.37;;;2.10;;
12271;SDS011;6198;51.446;6.698;2022-08-06T01:19:03;4.57;;;2.17;;
12271;SDS011;6198;51.446;6.698;2022-08-06T01:21:49;4.37;;;2.30;;
12271;SDS011;6198;51.446;6.698;2022-08-06T01:24:25;6.53;;;2.60;;
12271;SDS011;6198;51.446;6.698;2022-08-06T01:27:00;2.93;;;2.13;;
12271;SDS011;6198;51.446;6.698;2022-08-06T01:29:30;6.37;;;2.93;;
12271;SDS011;6198;51.446;6.698;2022-08-06T01:32:08;4.33;;;2.10;;
12271;SDS011;6198;51.446;6.698;2022-08-06T01:34:36;4.57;;;2.43;;
12271;SDS011;6198;51.446;6.698;2022-08-06T01:37:10;5.40;;;2.47;;
12271;SDS011;6198;51.446;6.698;2022-08-06T01:39:37;2.43;;;2.10;;
12271;SDS011;6198;51.446;6.698;2022-08-06T01:42:05;6.17;;;2.33;;
12271;SDS011;6198;51.446;6.698;2022-08-06T01:44:33;7.73;;;2.43;;
12271;SDS011;6198;51.446;6.698;2022-08-06T01:47:05;3.57;;;2.47;;
12271;SDS011;6198;51.446;6.698;2022-08-06T01:54:25;5.10;;;2.30;;
12271;SDS011;6198;51.446;6.698;2022-08-06T01:56:52;4.97;;;2.30;;
12271;SDS011;6198;51.446;6.698;2022-08-06T01:59:20;7.03;;;2.60;;
12271;SDS011;6198;51.446;6.698;2022-08-06T02:01:47;7.20;;;2.90;;
12271;SDS011;6198;51.446;6.698;2022-08-06T02:04:15;8.17;;;2.90;;
12271;SDS011;6198;51.446;6.698;2022-08-06T02:06:43;5.77;;;2.90;;
12271;SDS011;6198;51.446;6.698;2022-08-06T02:09:15;8.50;;;3.57;;
12271;SDS011;6198;51.446;6.698;2022-08-06T02:11:42;6.33;;;3.30;;
12271;SDS011;6198;51.446;6.698;2022-08-06T02:14:09;5.47;;;3.53;;
12271;SDS011;6198;51.446;6.698;2022-08-06T02:16:37;7.63;;;3.40;;
12271;SDS011;6198;51.446;6.698;2022-08-06T02:19:04;9.40;;;3.67;;
12271;SDS011;6198;51.446;6.698;2022-08-06T02:21:31;11.13;;;3.77;;
12271;SDS011;6198;51.446;6.698;2022-08-06T02:23:59;7.87;;;3.70;;
12271;SDS011;6198;51.446;6.698;2022-08-06T02:26:26;5.20;;;3.17;;
12271;SDS011;6198;51.446;6.698;2022-08-06T02:28:52;6.33;;;3.00;;
12271;SDS011;6198;51.446;6.698;2022-08-06T02:31:19;6.60;;;3.50;;
12271;SDS011;6198;51.446;6.698;2022-08-06T02:33:45;6.80;;;2.77;;
12271;SDS011;6198;51.446;6.698;2022-08-06T02:36:15;4.83;;;3.20;;
12271;SDS011;6198;51.446;6.698;2022-08-06T02:38:45;8.27;;;3.20;;
12271;SDS011;6198;51.446;6.698;2022-08-06T02:41:18;5.53;;;3.20;;
12271;SDS011;6198;51.446;6.698;2022-08-06T02:43:50;4.63;;;3.43;;
12271;SDS011;6198;51.446;6.698;2022-08-06T02:46:27;6.07;;;3.30;;
12271;SDS011;6198;51.446;6.698;2022-08-06T02:48:57;3.80;;;2.80;;
12271;SDS011;6198;51.446;6.698;2022-08-06T02:51:45;3.93;;;2.97;;
12271;SDS011;6198;51.446;6.698;2022-08-06T02:54:10;4.50;;;2.90;;
12271;SDS011;6198;51.446;6.698;2022-08-06T02:56:40;3.93;;;2.73;;
12271;SDS011;6198;51.446;6.698;2022-08-06T02:59:07;4.70;;;3.07;;
12271;SDS011;6198;51.446;6.698;2022-08-06T03:01:35;4.77;;;3.10;;
12271;SDS011;6198;51.446;6.698;2022-08-06T03:04:02;7.03;;;3.20;;
12271;SDS011;6198;51.446;6.698;2022-08-06T03:06:30;3.93;;;2.60;;
12271;SDS011;6198;51.446;6.698;2022-08-06T03:08:56;11.07;;;3.50;;
12271;SDS011;6198;51.446;6.698;2022-08-06T03:11:23;4.73;;;2.87;;
12271;SDS011;6198;51.446;6.698;2022-08-06T03:13:50;7.93;;;3.43;;
12271;SDS011;6198;51.446;6.698;2022-08-06T03:16:17;3.77;;;2.90;;
12271;SDS011;6198;51.446;6.698;2022-08-06T03:18:43;6.13;;;3.20;;
12271;SDS011;6198;51.446;6.698;2022-08-06T03:21:10;6.27;;;3.33;;
12271;SDS011;6198;51.446;6.698;2022-08-06T03:23:37;3.53;;;2.97;;
12271;SDS011;6198;51.446;6.698;2022-08-06T03:26:03;7.17;;;3.33;;
12271;SDS011;6198;51.446;6.698;2022-08-06T03:28:32;3.87;;;2.83;;
12271;SDS011;6198;51.446;6.698;2022-08-06T03:30:59;7.93;;;3.40;;
12271;SDS011;6198;51.446;6.698;2022-08-06T03:33:26;5.97;;;2.90;;
12271;SDS011;6198;51.446;6.698;2022-08-06T03:35:53;6.83;;;3.23;;
12271;SDS011;6198;51.446;6.698;2022-08-06T03:38:19;5.17;;;3.30;;
12271;SDS011;6198;51.446;6.698;2022-08-06T03:40:46;4.43;;;3.47;;
12271;SDS011;6198;51.446;6.698;2022-08-06T03:43:13;5.80;;;3.03;;
12271;SDS011;6198;51.446;6.698;2022-08-06T03:45:55;6.50;;;3.07;;
12271;SDS011;6198;51.446;6.698;2022-08-06T03:48:24;7.03;;;3.40;;
12271;SDS011;6198;51.446;6.698;2022-08-06T03:50:50;6.67;;;3.80;;
12271;SDS011;6198;51.446;6.698;2022-08-06T03:53:22;4.70;;;3.07;;
12271;SDS011;6198;51.446;6.698;2022-08-06T03:55:49;6.77;;;3.43;;
12271;SDS011;6198;51.446;6.698;2022-08-06T03:58:15;4.93;;;3.37;;
12271;SDS011;6198;51.446;6.698;2022-08-06T04:00:47;7.00;;;3.77;;
12271;SDS011;6198;51.446;6.698;2022-08-06T04:03:15;5.93;;;3.63;;
12271;SDS011;6198;51.446;6.698;2022-08-06T04:05:41;6.10;;;3.40;;
12271;SDS011;6198;51.446;6.698;2022-08-06T04:08:07;4.70;;;3.73;;
12271;SDS011;6198;51.446;6.698;2022-08-06T04:10:42;6.10;;;4.03;;
12271;SDS011;6198;51.446;6.698;2022-08-06T04:13:09;6.27;;;3.70;;
12271;SDS011;6198;51.446;6.698;2022-08-06T04:15:36;6.30;;;4.33;;
12271;SDS011;6198;51.446;6.698;2022-08-06T04:18:02;14.20;;;4.37;;
12271;SDS011;6198;51.446;6.698;2022-08-06T04:20:30;7.17;;;3.93;;
12271;SDS011;6198;51.446;6.698;2022-08-06T04:22:57;6.47;;;3.90;;
12271;SDS011;6198;51.446;6.698;2022-08-06T04:25:23;5.80;;;4.00;;
12271;SDS011;6198;51.446;6.698;2022-08-06T04:27:50;7.07;;;4.17;;
12271;SDS011;6198;51.446;6.698;2022-08-06T04:30:16;6.03;;;4.07;;
12271;SDS011;6198;51.446;6.698;2022-08-06T04:32:42;8.27;;;5.70;;
12271;SDS011;6198;51.446;6.698;2022-08-06T04:35:09;10.47;;;5.43;;
12271;SDS011;6198;51.446;6.698;2022-08-06T04:37:36;7.83;;;5.17;;
12271;SDS011;6198;51.446;6.698;2022-08-06T04:40:02;8.13;;;4.47;;
12271;SDS011;6198;51.446;6.698;2022-08-06T04:42:28;6.10;;;4.30;;
12271;SDS011;6198;51.446;6.698;2022-08-06T04:44:55;11.93;;;4.80;;
12271;SDS011;6198;51.446;6.698;2022-08-06T04:47:21;4.73;;;4.10;;
12271;SDS011;6198;51.446;6.698;2022-08-06T04:49:47;7.07;;;5.03;;
12271;SDS011;6198;51.446;6.698;2022-08-06T04:52:20;8.03;;;4.93;;
12271;SDS011;6198;51.446;6.698;2022-08-06T04:54:46;10.60;;;4.80;;
12271;SDS011;6198;51.446;6.698;2022-08-06T04:57:12;6.03;;;4.27;;
12271;SDS011;6198;51.446;6.698;2022-08-06T04:59:38;9.53;;;4.40;;
12271;SDS011;6198;51.446;6.698;2022-08-06T05:02:04;6.70;;;4.07;;
12271;SDS011;6198;51.446;6.698;2022-08-06T05:04:30;6.90;;;4.47;;
12271;SDS011;6198;51.446;6.698;2022-08-06T05:07:00;6.10;;;3.90;;
12271;SDS011;6198;51.446;6.698;2022-08-06T05:09:27;6.63;;;4.17;;
12271;SDS011;6198;51.446;6.698;2022-08-06T05:11:59;6.67;;;4.17;;
12271;SDS011;6198;51.446;6.698;2022-08-06T05:14:29;8.17;;;3.40;;
12271;SDS011;6198;51.446;6.698;2022-08-06T05:16:57;6.90;;;4.03;;
12271;SDS011;6198;51.446;6.698;2022-08-06T05:19:28;7.37;;;4.30;;
12271;SDS011;6198;51.446;6.698;2022-08-06T05:21:57;7.30;;;3.77;;
12271;SDS011;6198;51.446;6.698;2022-08-06T05:24:23;8.10;;;4.13;;
12271;SDS011;6198;51.446;6.698;2022-08-06T05:26:50;7.20;;;3.83;;
12271;SDS011;6198;51.446;6.698;2022-08-06T05:29:19;5.87;;;3.90;;
12271;SDS011;6198;51.446;6.698;2022-08-06T05:31:45;7.20;;;3.97;;
12271;SDS011;6198;51.446;6.698;2022-08-06T05:34:11;10.93;;;4.90;;
12271;SDS011;6198;51.446;6.698;2022-08-06T05:36:38;6.70;;;3.17;;
12271;SDS011;6198;51.446;6.698;2022-08-06T05:39:04;6.03;;;2.87;;
12271;SDS011;6198;51.446;6.698;2022-08-06T05:41:30;6.07;;;3.10;;
12271;SDS011;6198;51.446;6.698;2022-08-06T05:43:56;7.67;;;3.17;;
12271;SDS011;6198;51.446;6.698;2022-08-06T05:46:26;6.93;;;2.77;;
12271;SDS011;6198;51.446;6.698;2022-08-06T05:51:43;10.20;;;3.20;;
12271;SDS011;6198;51.446;6.698;2022-08-06T05:54:13;8.87;;;3.17;;
12271;SDS011;6198;51.446;6.698;2022-08-06T05:56:41;7.23;;;3.20;;
12271;SDS011;6198;51.446;6.698;2022-08-06T05:59:23;4.73;;;3.10;;
12271;SDS011;6198;51.446;6.698;2022-08-06T06:01:50;4.17;;;3.00;;
12271;SDS011;6198;51.446;6.698;2022-08-06T06:04:16;5.30;;;2.87;;
12271;SDS011;6198;51.446;6.698;2022-08-06T06:06:43;5.50;;;2.97;;
12271;SDS011;6198;51.446;6.698;2022-08-06T06:09:09;6.43;;;2.77;;
12271;SDS011;6198;51.446;6.698;2022-08-06T06:11:38;5.97;;;2.73;;
12271;SDS011;6198;51.446;6.698;2022-08-06T06:14:04;7.07;;;3.10;;
12271;SDS011;6198;51.446;6.698;2022-08-06T06:16:36;6.30;;;2.60;;
12271;SDS011;6198;51.446;6.698;2022-08-06T06:19:25;3.97;;;2.67;;
12271;SDS011;6198;51.446;6.698;2022-08-06T06:21:59;8.30;;;2.90;;
12271;SDS011;6198;51.446;6.698;2022-08-06T06:24:32;8.07;;;2.60;;
12271;SDS011;6198;51.446;6.698;2022-08-06T06:34:57;3.70;;;2.50;;
12271;SDS011;6198;51.446;6.698;2022-08-06T06:40:01;6.17;;;2.67;;
12271;SDS011;6198;51.446;6.698;2022-08-06T06:42:34;5.03;;;2.80;;
12271;SDS011;6198;51.446;6.698;2022-08-06T06:47:33;6.57;;;3.07;;
12271;SDS011;6198;51.446;6.698;2022-08-06T06:52:55;6.50;;;3.30;;
12271;SDS011;6198;51.446;6.698;2022-08-06T06:55:38;5.87;;;2.60;;
12271;SDS011;6198;51.446;6.698;2022-08-06T06:58:06;4.07;;;2.93;;
12271;SDS011;6198;51.446;6.698;2022-08-06T07:00:33;7.53;;;2.70;;
12271;SDS011;6198;51.446;6.698;2022-08-06T07:03:00;6.40;;;3.00;;
12271;SDS011;6198;51.446;6.698;2022-08-06T07:05:27;6.93;;;3.03;;
12271;SDS011;6198;51.446;6.698;2022-08-06T07:07:54;6.83;;;2.57;;
12271;SDS011;6198;51.446;6.698;2022-08-06T07:10:21;4.73;;;2.47;;
12271;SDS011;6198;51.446;6.698;2022-08-06T07:12:48;4.53;;;2.50;;
12271;SDS011;6198;51.446;6.698;2022-08-06T07:15:14;4.70;;;1.83;;
12271;SDS011;6198;51.446;6.698;2022-08-06T07:17:41;5.23;;;2.20;;
12271;SDS011;6198;51.446;6.698;2022-08-06T07:20:08;3.40;;;1.50;;
12271;SDS011;6198;51.446;6.698;2022-08-06T07:22:36;2.57;;;1.60;;
12271;SDS011;6198;51.446;6.698;2022-08-06T07:25:03;2.30;;;1.30;;
12271;SDS011;6198;51.446;6.698;2022-08-06T07:27:32;4.53;;;1.50;;
12271;SDS011;6198;51.446;6.698;2022-08-06T07:29:59;2.00;;;1.30;;
12271;SDS011;6198;51.446;6.698;2022-08-06T07:32:25;4.07;;;1.40;;
12271;SDS011;6198;51.446;6.698;2022-08-06T07:34:52;5.33;;;1.33;;
12271;SDS011;6198;51.446;6.698;2022-08-06T07:37:18;3.17;;;1.50;;
12271;SDS011;6198;51.446;6.698;2022-08-06T07:39:46;4.67;;;1.53;;
12271;SDS011;6198;51.446;6.698;2022-08-06T07:42:13;2.63;;;1.60;;
12271;SDS011;6198;51.446;6.698;2022-08-06T07:44:44;2.60;;;1.20;;
12271;SDS011;6198;51.446;6.698;2022-08-06T07:47:13;2.30;;;1.30;;
12271;SDS011;6198;51.446;6.698;2022-08-06T07:49:41;2.27;;;1.40;;
12271;SDS011;6198;51.446;6.698;2022-08-06T07:52:09;5.40;;;1.43;;
12271;SDS011;6198;51.446;6.698;2022-08-06T07:54:36;3.60;;;1.40;;
12271;SDS011;6198;51.446;6.698;2022-08-06T07:57:02;2.30;;;1.40;;
12271;SDS011;6198;51.446;6.698;2022-08-06T07:59:29;2.73;;;1.40;;
12271;SDS011;6198;51.446;6.698;2022-08-06T08:01:55;4.00;;;1.13;;
12271;SDS011;6198;51.446;6.698;2022-08-06T08:04:21;1.80;;;1.10;;
12271;SDS011;6198;51.446;6.698;2022-08-06T08:07:06;1.73;;;1.50;;
12271;SDS011;6198;51.446;6.698;2022-08-06T08:09:32;2.40;;;1.63;;
12271;SDS011;6198;51.446;6.698;2022-08-06T08:11:59;4.27;;;1.30;;
12271;SDS011;6198;51.446;6.698;2022-08-06T08:14:25;2.93;;;1.50;;
12271;SDS011;6198;51.446;6.698;2022-08-06T08:16:52;1.47;;;1.23;;
12271;SDS011;6198;51.446;6.698;2022-08-06T08:19:31;1.13;;;1.03;;
12271;SDS011;6198;51.446;6.698;2022-08-06T08:24:31;3.93;;;1.20;;
12271;SDS011;6198;51.446;6.698;2022-08-06T08:26:57;2.67;;;1.17;;
12271;SDS011;6198;51.446;6.698;2022-08-06T08:29:24;5.00;;;1.20;;
12271;SDS011;6198;51.446;6.698;2022-08-06T08:31:50;2.97;;;1.23;;
12271;SDS011;6198;51.446;6.698;2022-08-06T08:34:16;1.30;;;1.20;;
12271;SDS011;6198;51.446;6.698;2022-08-06T08:36:42;2.43;;;1.23;;
12271;SDS011;6198;51.446;6.698;2022-08-06T08:39:08;3.27;;;1.43;;
12271;SDS011;6198;51.446;6.698;2022-08-06T08:41:41;4.00;;;1.20;;
12271;SDS011;6198;51.446;6.698;2022-08-06T08:44:08;2.33;;;1.20;;
12271;SDS011;6198;51.446;6.698;2022-08-06T08:46:36;3.13;;;1.00;;
12271;SDS011;6198;51.446;6.698;2022-08-06T08:49:03;3.23;;;1.83;;
12271;SDS011;6198;51.446;6.698;2022-08-06T08:51:30;3.10;;;1.00;;
12271;SDS011;6198;51.446;6.698;2022-08-06T08:53:57;1.97;;;1.07;;
12271;SDS011;6198;51.446;6.698;2022-08-06T08:56:25;2.53;;;1.23;;
12271;SDS011;6198;51.446;6.698;2022-08-06T08:58:51;2.03;;;1.30;;
12271;SDS011;6198;51.446;6.698;2022-08-06T09:01:17;5.07;;;1.20;;
12271;SDS011;6198;51.446;6.698;2022-08-06T09:03:44;1.93;;;1.10;;
12271;SDS011;6198;51.446;6.698;2022-08-06T09:06:10;3.07;;;1.30;;
12271;SDS011;6198;51.446;6.698;2022-08-06T09:08:36;3.47;;;1.33;;
12271;SDS011;6198;51.446;6.698;2022-08-06T09:11:02;4.00;;;1.30;;
12271;SDS011;6198;51.446;6.698;2022-08-06T09:13:28;3.13;;;1.10;;
12271;SDS011;6198;51.446;6.698;2022-08-06T09:15:55;3.77;;;1.30;;
12271;SDS011;6198;51.446;6.698;2022-08-06T09:18:21;2.07;;;1.30;;
12271;SDS011;6198;51.446;6.698;2022-08-06T09:20:48;3.40;;;1.47;;
12271;SDS011;6198;51.446;6.698;2022-08-06T09:23:14;2.33;;;1.17;;
12271;SDS011;6198;51.446;6.698;2022-08-06T09:28:10;2.70;;;1.30;;
12271;SDS011;6198;51.446;6.698;2022-08-06T09:30:39;4.90;;;1.20;;
12271;SDS011;6198;51.446;6.698;2022-08-06T09:33:12;3.07;;;1.10;;
12271;SDS011;6198;51.446;6.698;2022-08-06T09:35:38;1.57;;;1.33;;
12271;SDS011;6198;51.446;6.698;2022-08-06T09:38:05;1.23;;;0.90;;
12271;SDS011;6198;51.446;6.698;2022-08-06T09:40:33;1.67;;;1.17;;
12271;SDS011;6198;51.446;6.698;2022-08-06T09:42:59;4.30;;;1.00;;
12271;SDS011;6198;51.446;6.698;2022-08-06T09:45:25;3.00;;;1.10;;
12271;SDS011;6198;51.446;6.698;2022-08-06T09:48:03;4.03;;;1.10;;
12271;SDS011;6198;51.446;6.698;2022-08-06T09:50:43;3.23;;;0.90;;
12271;SDS011;6198;51.446;6.698;2022-08-06T09:53:10;1.30;;;1.00;;
12271;SDS011;6198;51.446;6.698;2022-08-06T09:55:37;1.03;;;0.90;;
12271;SDS011;6198;51.446;6.698;2022-08-06T09:58:03;1.40;;;1.10;;
12271;SDS011;6198;51.446;6.698;2022-08-06T10:00:30;4.43;;;1.17;;
12271;SDS011;6198;51.446;6.698;2022-08-06T10:02:57;1.23;;;1.03;;
12271;SDS011;6198;51.446;6.698;2022-08-06T10:05:25;1.60;;;0.90;;
12271;SDS011;6198;51.446;6.698;2022-08-06T10:08:10;2.23;;;1.10;;
12271;SDS011;6198;51.446;6.698;2022-08-06T10:10:40;0.97;;;0.90;;
12271;SDS011;6198;51.446;6.698;2022-08-06T10:13:25;1.57;;;1.10;;
12271;SDS011;6198;51.446;6.698;2022-08-06T10:15:52;3.37;;;1.20;;
12271;SDS011;6198;51.446;6.698;2022-08-06T10:21:17;2.73;;;1.27;;
12271;SDS011;6198;51.446;6.698;2022-08-06T10:23:47;2.77;;;1.20;;
12271;SDS011;6198;51.446;6.698;2022-08-06T10:26:16;1.97;;;1.40;;
12271;SDS011;6198;51.446;6.698;2022-08-06T10:28:46;3.53;;;1.90;;
12271;SDS011;6198;51.446;6.698;2022-08-06T10:31:13;1.70;;;1.37;;
12271;SDS011;6198;51.446;6.698;2022-08-06T10:33:40;2.50;;;1.40;;
12271;SDS011;6198;51.446;6.698;2022-08-06T10:36:10;2.73;;;1.20;;
12271;SDS011;6198;51.446;6.698;2022-08-06T10:38:37;3.17;;;1.63;;
12271;SDS011;6198;51.446;6.698;2022-08-06T10:41:07;1.87;;;1.07;;
12271;SDS011;6198;51.446;6.698;2022-08-06T10:43:34;3.07;;;1.17;;
12271;SDS011;6198;51.446;6.698;2022-08-06T10:46:04;3.43;;;1.20;;
12271;SDS011;6198;51.446;6.698;2022-08-06T10:48:31;4.23;;;2.10;;
12271;SDS011;6198;51.446;6.698;2022-08-06T10:50:56;3.03;;;1.37;;
12271;SDS011;6198;51.446;6.698;2022-08-06T10:53:22;1.30;;;1.10;;
12271;SDS011;6198;51.446;6.698;2022-08-06T10:55:49;3.67;;;1.20;;
12271;SDS011;6198;51.446;6.698;2022-08-06T10:58:15;1.77;;;1.17;;
12271;SDS011;6198;51.446;6.698;2022-08-06T11:00:42;2.00;;;1.07;;
12271;SDS011;6198;51.446;6.698;2022-08-06T11:03:17;2.90;;;1.00;;
12271;SDS011;6198;51.446;6.698;2022-08-06T11:05:47;2.97;;;1.67;;
12271;SDS011;6198;51.446;6.698;2022-08-06T11:08:22;2.77;;;1.27;;
12271;SDS011;6198;51.446;6.698;2022-08-06T11:13:32;3.10;;;1.20;;
12271;SDS011;6198;51.446;6.698;2022-08-06T11:15:59;1.20;;;1.10;;
12271;SDS011;6198;51.446;6.698;2022-08-06T11:18:25;2.37;;;1.10;;
12271;SDS011;6198;51.446;6.698;2022-08-06T11:20:51;1.77;;;1.37;;
12271;SDS011;6198;51.446;6.698;2022-08-06T11:25:44;1.80;;;1.10;;
12271;SDS011;6198;51.446;6.698;2022-08-06T11:28:11;1.50;;;1.10;;
12271;SDS011;6198;51.446;6.698;2022-08-06T11:33:10;1.37;;;1.03;;
12271;SDS011;6198;51.446;6.698;2022-08-06T11:38:04;2.50;;;1.20;;
12271;SDS011;6198;51.446;6.698;2022-08-06T11:54:10;2.07;;;1.43;;
12271;SDS011;6198;51.446;6.698;2022-08-06T11:56:40;1.77;;;1.20;;
12271;SDS011;6198;51.446;6.698;2022-08-06T11:59:22;1.87;;;1.03;;
12271;SDS011;6198;51.446;6.698;2022-08-06T12:01:48;3.60;;;1.30;;
12271;SDS011;6198;51.446;6.698;2022-08-06T12:09:43;2.50;;;1.07;;
12271;SDS011;6198;51.446;6.698;2022-08-06T12:14:55;4.33;;;1.20;;
12271;SDS011;6198;51.446;6.698;2022-08-06T12:17:22;1.13;;;1.07;;
12271;SDS011;6198;51.446;6.698;2022-08-06T12:19:49;2.33;;;1.10;;
12271;SDS011;6198;51.446;6.698;2022-08-06T12:22:16;2.23;;;1.30;;
12271;SDS011;6198;51.446;6.698;2022-08-06T12:24:43;1.77;;;1.10;;
12271;SDS011;6198;51.446;6.698;2022-08-06T12:27:12;1.57;;;0.90;;
12271;SDS011;6198;51.446;6.698;2022-08-06T12:29:38;2.07;;;1.30;;
12271;SDS011;6198;51.446;6.698;2022-08-06T12:32:21;1.73;;;1.20;;
12271;SDS011;6198;51.446;6.698;2022-08-06T12:34:48;1.53;;;1.00;;
12271;SDS011;6198;51.446;6.698;2022-08-06T12:37:15;2.13;;;1.10;;
12271;SDS011;6198;51.446;6.698;2022-08-06T12:39:41;1.27;;;1.07;;
12271;SDS011;6198;51.446;6.698;2022-08-06T12:42:25;3.33;;;1.30;;
12271;SDS011;6198;51.446;6.698;2022-08-06T12:44:52;3.70;;;1.80;;
12271;SDS011;6198;51.446;6.698;2022-08-06T12:47:18;4.33;;;1.20;;
12271;SDS011;6198;51.446;6.698;2022-08-06T12:49:44;1.97;;;1.20;;
12271;SDS011;6198;51.446;6.698;2022-08-06T12:52:14;2.83;;;1.33;;
12271;SDS011;6198;51.446;6.698;2022-08-06T12:54:45;2.57;;;1.13;;
12271;SDS011;6198;51.446;6.698;2022-08-06T12:57:23;1.10;;;1.00;;
12271;SDS011;6198;51.446;6.698;2022-08-06T12:59:50;2.30;;;1.17;;
12271;SDS011;6198;51.446;6.698;2022-08-06T13:02:18;3.90;;;1.20;;
12271;SDS011;6198;51.446;6.698;2022-08-06T13:04:46;4.80;;;1.10;;
12271;SDS011;6198;51.446;6.698;2022-08-06T13:07:14;1.27;;;0.83;;
12271;SDS011;6198;51.446;6.698;2022-08-06T13:09:41;4.20;;;1.20;;
12271;SDS011;6198;51.446;6.698;2022-08-06T13:12:11;1.93;;;1.40;;
12271;SDS011;6198;51.446;6.698;2022-08-06T13:14:47;1.93;;;1.17;;
12271;SDS011;6198;51.446;6.698;2022-08-06T13:17:13;3.27;;;1.10;;
12271;SDS011;6198;51.446;6.698;2022-08-06T13:20:00;1.30;;;1.03;;
12271;SDS011;6198;51.446;6.698;2022-08-06T13:22:26;1.10;;;1.00;;
12271;SDS011;6198;51.446;6.698;2022-08-06T13:25:08;4.17;;;1.30;;
12271;SDS011;6198;51.446;6.698;2022-08-06T13:27:34;1.63;;;1.33;;
12271;SDS011;6198;51.446;6.698;2022-08-06T13:30:05;1.67;;;1.37;;
12271;SDS011;6198;51.446;6.698;2022-08-06T13:32:31;2.87;;;1.13;;
12271;SDS011;6198;51.446;6.698;2022-08-06T13:34:58;4.23;;;1.30;;
12271;SDS011;6198;51.446;6.698;2022-08-06T13:37:40;4.27;;;1.50;;
12271;SDS011;6198;51.446;6.698;2022-08-06T13:40:06;6.30;;;1.53;;
12271;SDS011;6198;51.446;6.698;2022-08-06T13:42:32;2.20;;;1.40;;
12271;SDS011;6198;51.446;6.698;2022-08-06T13:44:58;1.50;;;1.20;;
12271;SDS011;6198;51.446;6.698;2022-08-06T13:47:28;2.00;;;1.07;;
12271;SDS011;6198;51.446;6.698;2022-08-06T13:49:54;1.63;;;1.10;;
12271;SDS011;6198;51.446;6.698;2022-08-06T13:52:20;1.70;;;1.07;;
12271;SDS011;6198;51.446;6.698;2022-08-06T13:54:46;3.17;;;1.40;;
12271;SDS011;6198;51.446;6.698;2022-08-06T13:57:12;2.10;;;1.20;;
12271;SDS011;6198;51.446;6.698;2022-08-06T13:59:38;2.10;;;1.30;;
12271;SDS011;6198;51.446;6.698;2022-08-06T14:02:05;2.97;;;1.37;;
12271;SDS011;6198;51.446;6.698;2022-08-06T14:04:31;2.33;;;1.27;;
12271;SDS011;6198;51.446;6.698;2022-08-06T14:06:58;3.30;;;1.70;;
12271;SDS011;6198;51.446;6.698;2022-08-06T14:09:25;2.00;;;1.40;;
12271;SDS011;6198;51.446;6.698;2022-08-06T14:11:53;1.40;;;1.10;;
12271;SDS011;6198;51.446;6.698;2022-08-06T14:14:19;1.23;;;1.10;;
12271;SDS011;6198;51.446;6.698;2022-08-06T14:16:45;3.27;;;1.40;;
12271;SDS011;6198;51.446;6.698;2022-08-06T14:19:11;1.20;;;1.10;;
12271;SDS011;6198;51.446;6.698;2022-08-06T14:21:37;1.53;;;1.03;;
12271;SDS011;6198;51.446;6.698;2022-08-06T14:24:03;3.80;;;1.30;;
12271;SDS011;6198;51.446;6.698;2022-08-06T14:26:29;1.77;;;1.37;;
12271;SDS011;6198;51.446;6.698;2022-08-06T14:28:55;3.63;;;1.60;;
12271;SDS011;6198;51.446;6.698;2022-08-06T14:31:21;5.53;;;1.73;;
12271;SDS011;6198;51.446;6.698;2022-08-06T14:33:47;5.73;;;1.53;;
12271;SDS011;6198;51.446;6.698;2022-08-06T14:36:14;4.13;;;1.40;;
12271;SDS011;6198;51.446;6.698;2022-08-06T14:38:39;3.00;;;1.50;;
12271;SDS011;6198;51.446;6.698;2022-08-06T14:41:05;4.13;;;1.60;;
12271;SDS011;6198;51.446;6.698;2022-08-06T14:43:50;2.67;;;1.50;;
12271;SDS011;6198;51.446;6.698;2022-08-06T14:46:34;3.17;;;1.10;;
12271;SDS011;6198;51.446;6.698;2022-08-06T14:49:01;2.20;;;1.23;;
12271;SDS011;6198;51.446;6.698;2022-08-06T14:51:27;3.37;;;1.20;;
12271;SDS011;6198;51.446;6.698;2022-08-06T14:53:53;2.70;;;1.87;;
12271;SDS011;6198;51.446;6.698;2022-08-06T14:56:19;1.93;;;1.60;;
12271;SDS011;6198;51.446;6.698;2022-08-06T14:58:45;3.17;;;2.00;;
12271;SDS011;6198;51.446;6.698;2022-08-06T15:01:11;2.00;;;1.20;;
12271;SDS011;6198;51.446;6.698;2022-08-06T15:03:37;2.20;;;1.20;;
12271;SDS011;6198;51.446;6.698;2022-08-06T15:06:03;1.57;;;1.10;;
12271;SDS011;6198;51.446;6.698;2022-08-06T15:08:29;2.07;;;1.27;;
12271;SDS011;6198;51.446;6.698;2022-08-06T15:10:56;4.57;;;1.53;;
12271;SDS011;6198;51.446;6.698;2022-08-06T15:13:22;1.93;;;1.17;;
12271;SDS011;6198;51.446;6.698;2022-08-06T15:15:48;0.97;;;0.97;;
12271;SDS011;6198;51.446;6.698;2022-08-06T15:18:14;3.23;;;1.10;;
12271;SDS011;6198;51.446;6.698;2022-08-06T15:20:40;2.03;;;1.10;;
12271;SDS011;6198;51.446;6.698;2022-08-06T15:23:06;1.63;;;1.20;;
12271;SDS011;6198;51.446;6.698;2022-08-06T15:25:32;2.20;;;1.10;;
12271;SDS011;6198;51.446;6.698;2022-08-06T15:27:58;3.03;;;1.20;;
12271;SDS011;6198;51.446;6.698;2022-08-06T15:30:24;3.40;;;1.37;;
12271;SDS011;6198;51.446;6.698;2022-08-06T15:32:50;4.10;;;1.50;;
12271;SDS011;6198;51.446;6.698;2022-08-06T15:35:17;3.80;;;1.30;;
12271;SDS011;6198;51.446;6.698;2022-08-06T15:37:42;2.07;;;1.40;;
12271;SDS011;6198;51.446;6.698;2022-08-06T15:40:09;2.20;;;1.50;;
12271;SDS011;6198;51.446;6.698;2022-08-06T15:42:35;1.43;;;1.33;;
12271;SDS011;6198;51.446;6.698;2022-08-06T15:45:01;2.67;;;1.23;;
12271;SDS011;6198;51.446;6.698;2022-08-06T15:47:27;1.40;;;1.20;;
12271;SDS011;6198;51.446;6.698;2022-08-06T15:49:52;1.43;;;1.10;;
12271;SDS011;6198;51.446;6.698;2022-08-06T15:52:18;2.50;;;1.60;;
12271;SDS011;6198;51.446;6.698;2022-08-06T15:54:44;1.90;;;1.37;;
12271;SDS011;6198;51.446;6.698;2022-08-06T15:57:10;1.50;;;1.30;;
12271;SDS011;6198;51.446;6.698;2022-08-06T15:59:37;2.67;;;1.40;;
12271;SDS011;6198;51.446;6.698;2022-08-06T16:02:03;3.50;;;1.83;;
12271;SDS011;6198;51.446;6.698;2022-08-06T16:04:29;1.33;;;1.13;;
12271;SDS011;6198;51.446;6.698;2022-08-06T16:06:55;2.43;;;1.23;;
12271;SDS011;6198;51.446;6.698;2022-08-06T16:09:21;0.90;;;0.90;;
12271;SDS011;6198;51.446;6.698;2022-08-06T16:11:47;2.17;;;1.10;;
12271;SDS011;6198;51.446;6.698;2022-08-06T16:14:13;4.33;;;2.10;;